METAR Data
IDs: Format: Raw Decoded Include TAF

Data at: 1210 UTC 07 Oct 2022

EBDT 070825Z AUTO 19007KT 9999 NCD 12/08 Q1025 BLU